sensor_id;sensor_type;location;lat;lon;timestamp;pressure;altitude;pressure_sealevel;temperature;humidity
7888;BME280;3989;48.810;9.208;2023-03-04T00:02:09;99319.41;;;0.45;100.00
7888;BME280;3989;48.810;9.208;2023-03-04T00:04:35;99370.03;;;0.99;100.00
7888;BME280;3989;48.810;9.208;2023-03-04T00:07:02;99286.47;;;0.67;100.00
7888;BME280;3989;48.810;9.208;2023-03-04T00:09:31;99254.19;;;0.52;100.00
7888;BME280;3989;48.810;9.208;2023-03-04T00:11:58;99256.94;;;0.50;100.00
7888;BME280;3989;48.810;9.208;2023-03-04T00:14:24;99349.66;;;1.03;100.00
7888;BME280;3989;48.810;9.208;2023-03-04T00:16:51;99377.94;;;1.12;100.00
7888;BME280;3989;48.810;9.208;2023-03-04T00:19:18;99373.19;;;0.92;100.00
7888;BME280;3989;48.810;9.208;2023-03-04T00:21:45;99272.72;;;0.11;100.00
7888;BME280;3989;48.810;9.208;2023-03-04T00:24:12;99249.25;;;-0.17;100.00
7888;BME280;3989;48.810;9.208;2023-03-04T00:26:40;99370.38;;;0.56;100.00
7888;BME280;3989;48.810;9.208;2023-03-04T00:29:06;99291.34;;;-0.06;100.00
7888;BME280;3989;48.810;9.208;2023-03-04T00:31:33;99232.19;;;-0.64;100.00
7888;BME280;3989;48.810;9.208;2023-03-04T00:34:00;99279.59;;;-0.40;100.00
7888;BME280;3989;48.810;9.208;2023-03-04T00:36:27;99366.56;;;0.08;100.00
7888;BME280;3989;48.810;9.208;2023-03-04T00:38:53;99367.88;;;0.00;100.00
7888;BME280;3989;48.810;9.208;2023-03-04T00:41:20;99337.50;;;-0.16;100.00
7888;BME280;3989;48.810;9.208;2023-03-04T00:43:48;99343.56;;;-0.16;100.00
7888;BME280;3989;48.810;9.208;2023-03-04T00:46:15;99318.06;;;-0.40;100.00
7888;BME280;3989;48.810;9.208;2023-03-04T00:48:42;99292.38;;;-0.62;100.00
7888;BME280;3989;48.810;9.208;2023-03-04T00:51:08;99184.56;;;-1.25;100.00
7888;BME280;3989;48.810;9.208;2023-03-04T00:53:35;99183.09;;;-1.29;100.00
7888;BME280;3989;48.810;9.208;2023-03-04T00:56:02;99380.31;;;-0.16;100.00
7888;BME280;3989;48.810;9.208;2023-03-04T00:58:29;99337.03;;;-0.49;100.00
7888;BME280;3989;48.810;9.208;2023-03-04T01:00:57;99379.50;;;-0.30;100.00
7888;BME280;3989;48.810;9.208;2023-03-04T01:03:24;99342.72;;;-0.57;100.00
7888;BME280;3989;48.810;9.208;2023-03-04T01:05:55;99371.38;;;-0.40;100.00
7888;BME280;3989;48.810;9.208;2023-03-04T01:08:22;99356.59;;;-0.55;100.00
7888;BME280;3989;48.810;9.208;2023-03-04T01:10:49;99150.22;;;-1.76;100.00
7888;BME280;3989;48.810;9.208;2023-03-04T01:13:16;99312.53;;;-0.91;100.00
7888;BME280;3989;48.810;9.208;2023-03-04T01:15:43;99326.56;;;-0.78;100.00
7888;BME280;3989;48.810;9.208;2023-03-04T01:18:13;99336.94;;;-0.62;100.00
7888;BME280;3989;48.810;9.208;2023-03-04T01:20:40;99245.00;;;-1.14;100.00
7888;BME280;3989;48.810;9.208;2023-03-04T01:23:07;99376.50;;;-0.38;100.00
7888;BME280;3989;48.810;9.208;2023-03-04T01:25:33;99364.63;;;-0.44;100.00
7888;BME280;3989;48.810;9.208;2023-03-04T01:28:00;99362.66;;;-0.40;100.00
7888;BME280;3989;48.810;9.208;2023-03-04T01:30:27;99264.66;;;-1.07;100.00
7888;BME280;3989;48.810;9.208;2023-03-04T01:32:54;99340.56;;;-0.50;100.00
7888;BME280;3989;48.810;9.208;2023-03-04T01:35:22;99183.09;;;-1.43;100.00
7888;BME280;3989;48.810;9.208;2023-03-04T01:37:49;99155.81;;;-1.53;100.00
7888;BME280;3989;48.810;9.208;2023-03-04T01:40:16;99334.34;;;-0.35;100.00
7888;BME280;3989;48.810;9.208;2023-03-04T01:42:43;99346.59;;;-0.22;100.00
7888;BME280;3989;48.810;9.208;2023-03-04T01:45:12;99305.16;;;-0.43;100.00
7888;BME280;3989;48.810;9.208;2023-03-04T01:47:39;99351.66;;;-0.19;100.00
7888;BME280;3989;48.810;9.208;2023-03-04T01:50:17;99255.06;;;-0.80;100.00
7888;BME280;3989;48.810;9.208;2023-03-04T01:52:46;99364.50;;;-0.28;100.00
7888;BME280;3989;48.810;9.208;2023-03-04T01:55:17;99348.31;;;-0.35;100.00
7888;BME280;3989;48.810;9.208;2023-03-04T01:57:45;99267.22;;;-0.93;100.00
7888;BME280;3989;48.810;9.208;2023-03-04T02:00:25;99351.03;;;-0.36;100.00
7888;BME280;3989;48.810;9.208;2023-03-04T02:02:54;99197.50;;;-1.36;100.00
7888;BME280;3989;48.810;9.208;2023-03-04T02:05:23;99355.38;;;-0.49;100.00
7888;BME280;3989;48.810;9.208;2023-03-04T02:07:52;99172.75;;;-1.59;100.00
7888;BME280;3989;48.810;9.208;2023-03-04T02:10:20;99240.59;;;-1.14;100.00
7888;BME280;3989;48.810;9.208;2023-03-04T02:12:48;99207.22;;;-1.24;100.00
7888;BME280;3989;48.810;9.208;2023-03-04T04:27:14;99006.78;;;-4.04;100.00
7888;BME280;3989;48.810;9.208;2023-03-04T04:29:41;99260.59;;;-2.44;100.00
7888;BME280;3989;48.810;9.208;2023-03-04T04:32:08;99238.88;;;-2.76;100.00
7888;BME280;3989;48.810;9.208;2023-03-04T04:35:00;99031.88;;;-4.19;100.00
7888;BME280;3989;48.810;9.208;2023-03-04T04:41:13;99042.81;;;-4.12;100.00
7888;BME280;3989;48.810;9.208;2023-03-04T04:44:08;99197.28;;;-2.95;100.00
7888;BME280;3989;48.810;9.208;2023-03-04T04:46:56;99140.16;;;-3.32;100.00
7888;BME280;3989;48.810;9.208;2023-03-04T04:49:50;99023.16;;;-3.71;100.00
7888;BME280;3989;48.810;9.208;2023-03-04T04:58:20;99034.88;;;-3.78;100.00
7888;BME280;3989;48.810;9.208;2023-03-04T05:08:15;99355.31;;;-1.78;100.00
7888;BME280;3989;48.810;9.208;2023-03-04T05:11:20;99058.25;;;-3.92;100.00
7888;BME280;3989;48.810;9.208;2023-03-04T05:14:21;99038.50;;;-4.13;100.00
7888;BME280;3989;48.810;9.208;2023-03-04T07:37:35;99480.84;;;0.67;100.00
7888;BME280;3989;48.810;9.208;2023-03-04T07:40:06;99463.59;;;0.63;100.00
7888;BME280;3989;48.810;9.208;2023-03-04T07:42:33;99376.38;;;0.18;100.00
7888;BME280;3989;48.810;9.208;2023-03-04T07:45:01;99468.25;;;0.72;100.00
7888;BME280;3989;48.810;9.208;2023-03-04T07:47:28;99488.03;;;0.77;100.00
7888;BME280;3989;48.810;9.208;2023-03-04T08:33:02;99514.44;;;1.28;100.00
7888;BME280;3989;48.810;9.208;2023-03-04T08:47:25;99461.03;;;0.88;100.00
7888;BME280;3989;48.810;9.208;2023-03-04T09:21:15;99518.16;;;2.37;100.00
7888;BME280;3989;48.810;9.208;2023-03-04T09:23:42;99446.94;;;2.02;100.00
7888;BME280;3989;48.810;9.208;2023-03-04T09:26:18;99462.59;;;2.29;100.00
7888;BME280;3989;48.810;9.208;2023-03-04T09:28:49;99442.38;;;2.17;100.00
7888;BME280;3989;48.810;9.208;2023-03-04T09:31:16;99425.94;;;2.26;100.00
7888;BME280;3989;48.810;9.208;2023-03-04T09:33:43;99501.09;;;2.67;100.00
7888;BME280;3989;48.810;9.208;2023-03-04T09:36:11;99502.56;;;2.71;100.00
7888;BME280;3989;48.810;9.208;2023-03-04T09:38:40;99482.25;;;2.60;100.00
7888;BME280;3989;48.810;9.208;2023-03-04T09:41:08;99494.53;;;2.72;100.00
7888;BME280;3989;48.810;9.208;2023-03-04T09:43:37;99482.34;;;2.71;100.00
7888;BME280;3989;48.810;9.208;2023-03-04T09:46:07;99415.28;;;2.28;100.00
7888;BME280;3989;48.810;9.208;2023-03-04T09:48:39;99434.09;;;2.34;100.00
7888;BME280;3989;48.810;9.208;2023-03-04T09:51:18;99403.22;;;2.13;100.00
7888;BME280;3989;48.810;9.208;2023-03-04T09:53:55;99497.53;;;2.68;100.00
7888;BME280;3989;48.810;9.208;2023-03-04T09:56:26;99522.75;;;2.83;100.00
7888;BME280;3989;48.810;9.208;2023-03-04T09:58:59;99493.66;;;2.84;100.00
7888;BME280;3989;48.810;9.208;2023-03-04T10:01:31;99493.81;;;3.29;100.00
7888;BME280;3989;48.810;9.208;2023-03-04T10:04:02;99512.13;;;3.76;100.00
7888;BME280;3989;48.810;9.208;2023-03-04T10:06:34;99512.78;;;4.13;100.00
7888;BME280;3989;48.810;9.208;2023-03-04T10:09:05;99511.19;;;4.21;100.00
7888;BME280;3989;48.810;9.208;2023-03-04T10:11:40;99515.06;;;4.06;100.00
7888;BME280;3989;48.810;9.208;2023-03-04T10:14:19;99456.34;;;3.81;100.00
7888;BME280;3989;48.810;9.208;2023-03-04T10:16:56;99511.09;;;4.23;100.00
7888;BME280;3989;48.810;9.208;2023-03-04T10:19:31;99506.53;;;4.25;100.00
7888;BME280;3989;48.810;9.208;2023-03-04T10:21:59;99513.84;;;4.10;100.00
7888;BME280;3989;48.810;9.208;2023-03-04T10:24:28;99499.06;;;4.08;100.00
7888;BME280;3989;48.810;9.208;2023-03-04T10:27:00;99505.66;;;4.24;100.00
7888;BME280;3989;48.810;9.208;2023-03-04T10:29:29;99502.06;;;4.26;100.00
7888;BME280;3989;48.810;9.208;2023-03-04T10:31:57;99482.88;;;4.12;100.00
7888;BME280;3989;48.810;9.208;2023-03-04T10:34:23;99499.69;;;4.22;100.00
7888;BME280;3989;48.810;9.208;2023-03-04T10:36:57;99482.28;;;4.09;100.00
7888;BME280;3989;48.810;9.208;2023-03-04T10:39:28;99471.56;;;4.10;100.00
7888;BME280;3989;48.810;9.208;2023-03-04T10:41:59;99465.19;;;4.24;100.00
7888;BME280;3989;48.810;9.208;2023-03-04T10:44:26;99451.38;;;4.20;100.00
7888;BME280;3989;48.810;9.208;2023-03-04T10:46:54;99494.56;;;4.53;100.00
7888;BME280;3989;48.810;9.208;2023-03-04T10:49:22;99492.56;;;4.45;100.00
7888;BME280;3989;48.810;9.208;2023-03-04T10:51:52;99490.66;;;4.14;100.00
7888;BME280;3989;48.810;9.208;2023-03-04T10:54:23;99471.47;;;3.90;100.00
7888;BME280;3989;48.810;9.208;2023-03-04T10:56:58;99493.56;;;4.00;100.00
7888;BME280;3989;48.810;9.208;2023-03-04T10:59:49;99480.47;;;3.98;100.00
7888;BME280;3989;48.810;9.208;2023-03-04T11:02:26;99475.06;;;4.11;100.00
7888;BME280;3989;48.810;9.208;2023-03-04T11:04:56;99475.06;;;4.22;100.00
7888;BME280;3989;48.810;9.208;2023-03-04T11:07:24;99472.97;;;4.48;100.00
7888;BME280;3989;48.810;9.208;2023-03-04T11:09:51;99422.81;;;4.26;100.00
7888;BME280;3989;48.810;9.208;2023-03-04T11:12:21;99473.09;;;4.46;100.00
7888;BME280;3989;48.810;9.208;2023-03-04T11:14:57;99435.78;;;4.17;100.00
7888;BME280;3989;48.810;9.208;2023-03-04T11:17:25;99463.28;;;4.15;100.00
7888;BME280;3989;48.810;9.208;2023-03-04T11:19:56;99459.44;;;4.08;100.00
7888;BME280;3989;48.810;9.208;2023-03-04T11:22:25;99439.41;;;3.94;100.00
7888;BME280;3989;48.810;9.208;2023-03-04T11:25:00;99458.16;;;4.02;100.00
7888;BME280;3989;48.810;9.208;2023-03-04T11:27:37;99426.69;;;3.88;100.00
7888;BME280;3989;48.810;9.208;2023-03-04T11:30:24;99463.78;;;4.09;100.00
7888;BME280;3989;48.810;9.208;2023-03-04T11:32:55;99431.16;;;3.88;100.00
7888;BME280;3989;48.810;9.208;2023-03-04T11:35:28;99455.50;;;4.02;100.00
7888;BME280;3989;48.810;9.208;2023-03-04T11:38:02;99414.34;;;3.78;100.00
7888;BME280;3989;48.810;9.208;2023-03-04T11:40:33;99412.88;;;3.85;100.00
7888;BME280;3989;48.810;9.208;2023-03-04T11:43:06;99454.16;;;4.19;100.00
7888;BME280;3989;48.810;9.208;2023-03-04T11:46:01;99443.81;;;4.38;100.00
7888;BME280;3989;48.810;9.208;2023-03-04T11:48:42;99456.63;;;4.54;97.20
7888;BME280;3989;48.810;9.208;2023-03-04T11:51:13;99446.25;;;4.08;100.00
7888;BME280;3989;48.810;9.208;2023-03-04T11:56:37;99440.38;;;4.15;100.00
7888;BME280;3989;48.810;9.208;2023-03-04T11:59:21;99454.91;;;3.88;100.00
7888;BME280;3989;48.810;9.208;2023-03-04T12:02:01;99442.06;;;3.83;100.00
7888;BME280;3989;48.810;9.208;2023-03-04T12:04:55;99424.66;;;3.69;100.00
7888;BME280;3989;48.810;9.208;2023-03-04T12:07:42;99401.50;;;3.51;100.00
7888;BME280;3989;48.810;9.208;2023-03-04T12:10:19;99391.06;;;3.60;100.00
7888;BME280;3989;48.810;9.208;2023-03-04T12:13:11;99419.41;;;3.81;100.00
7888;BME280;3989;48.810;9.208;2023-03-04T12:15:49;99394.06;;;3.67;100.00
7888;BME280;3989;48.810;9.208;2023-03-04T12:18:31;99209.78;;;2.51;100.00
7888;BME280;3989;48.810;9.208;2023-03-04T12:21:13;99412.41;;;3.68;100.00
7888;BME280;3989;48.810;9.208;2023-03-04T12:23:58;99406.66;;;3.63;100.00
7888;BME280;3989;48.810;9.208;2023-03-04T12:26:35;99360.25;;;3.50;100.00
7888;BME280;3989;48.810;9.208;2023-03-04T12:29:10;99371.66;;;3.61;100.00
7888;BME280;3989;48.810;9.208;2023-03-04T12:31:41;99395.38;;;3.84;100.00
7888;BME280;3989;48.810;9.208;2023-03-04T12:34:32;99367.19;;;3.62;100.00
7888;BME280;3989;48.810;9.208;2023-03-04T12:37:15;99400.19;;;3.67;100.00
7888;BME280;3989;48.810;9.208;2023-03-04T12:39:55;99353.16;;;3.50;100.00
7888;BME280;3989;48.810;9.208;2023-03-04T12:42:36;99361.09;;;3.50;100.00
7888;BME280;3989;48.810;9.208;2023-03-04T12:45:15;99351.72;;;3.46;100.00
7888;BME280;3989;48.810;9.208;2023-03-04T12:47:51;99363.72;;;3.61;100.00
7888;BME280;3989;48.810;9.208;2023-03-04T12:50:30;99341.78;;;3.61;100.00
7888;BME280;3989;48.810;9.208;2023-03-04T12:53:01;99381.09;;;3.86;100.00
7888;BME280;3989;48.810;9.208;2023-03-04T12:55:36;99170.38;;;2.61;100.00
7888;BME280;3989;48.810;9.208;2023-03-04T12:58:04;99310.38;;;3.36;100.00
7888;BME280;3989;48.810;9.208;2023-03-04T13:00:43;99367.06;;;3.63;100.00
7888;BME280;3989;48.810;9.208;2023-03-04T13:03:17;99336.88;;;3.45;100.00
7888;BME280;3989;48.810;9.208;2023-03-04T13:06:00;99367.09;;;3.75;100.00
7888;BME280;3989;48.810;9.208;2023-03-04T13:08:36;99356.16;;;3.57;100.00
7888;BME280;3989;48.810;9.208;2023-03-04T13:14:24;99341.78;;;3.61;100.00
7888;BME280;3989;48.810;9.208;2023-03-04T13:16:53;99298.00;;;3.36;100.00
7888;BME280;3989;48.810;9.208;2023-03-04T13:19:51;99362.28;;;3.57;100.00
7888;BME280;3989;48.810;9.208;2023-03-04T13:22:41;99367.66;;;3.56;100.00
7888;BME280;3989;48.810;9.208;2023-03-04T13:25:40;99318.16;;;3.15;100.00
7888;BME280;3989;48.810;9.208;2023-03-04T13:28:23;99370.19;;;3.57;100.00
7888;BME280;3989;48.810;9.208;2023-03-04T13:31:06;99335.53;;;3.29;100.00
7888;BME280;3989;48.810;9.208;2023-03-04T13:33:54;99368.03;;;3.40;100.00
7888;BME280;3989;48.810;9.208;2023-03-04T13:39:23;99304.00;;;3.05;100.00
7888;BME280;3989;48.810;9.208;2023-03-04T13:41:52;99363.50;;;3.42;100.00
7888;BME280;3989;48.810;9.208;2023-03-04T13:44:57;99361.69;;;3.54;100.00
7888;BME280;3989;48.810;9.208;2023-03-04T13:47:31;99334.94;;;3.58;100.00
7888;BME280;3989;48.810;9.208;2023-03-04T13:50:24;99369.81;;;3.73;100.00
7888;BME280;3989;48.810;9.208;2023-03-04T13:52:59;99265.75;;;2.99;100.00
7888;BME280;3989;48.810;9.208;2023-03-04T13:55:32;99336.38;;;3.40;100.00
7888;BME280;3989;48.810;9.208;2023-03-04T13:58:01;99311.06;;;3.27;100.00
7888;BME280;3989;48.810;9.208;2023-03-04T14:00:29;99247.19;;;2.90;100.00
7888;BME280;3989;48.810;9.208;2023-03-04T14:03:11;99338.06;;;3.41;100.00
7888;BME280;3989;48.810;9.208;2023-03-04T14:05:38;99170.38;;;2.39;100.00
7888;BME280;3989;48.810;9.208;2023-03-04T14:08:17;99332.28;;;3.36;100.00
7888;BME280;3989;48.810;9.208;2023-03-04T14:10:53;99357.25;;;3.54;100.00
7888;BME280;3989;48.810;9.208;2023-03-04T14:13:20;99363.22;;;3.56;100.00
7888;BME280;3989;48.810;9.208;2023-03-04T14:15:53;99334.34;;;3.44;100.00
7888;BME280;3989;48.810;9.208;2023-03-04T14:18:20;99346.69;;;3.43;100.00
7888;BME280;3989;48.810;9.208;2023-03-04T14:20:50;99250.66;;;2.79;100.00
7888;BME280;3989;48.810;9.208;2023-03-04T14:23:26;99347.41;;;3.34;100.00
7888;BME280;3989;48.810;9.208;2023-03-04T14:26:04;99350.03;;;3.34;100.00
7888;BME280;3989;48.810;9.208;2023-03-04T14:28:31;99284.94;;;3.01;100.00
7888;BME280;3989;48.810;9.208;2023-03-04T14:30:57;99317.19;;;3.16;100.00
7888;BME280;3989;48.810;9.208;2023-03-04T14:33:26;99337.09;;;3.31;100.00
7888;BME280;3989;48.810;9.208;2023-03-04T14:35:55;99328.94;;;3.34;100.00
7888;BME280;3989;48.810;9.208;2023-03-04T14:38:26;99334.94;;;3.36;100.00
7888;BME280;3989;48.810;9.208;2023-03-04T14:40:57;99306.88;;;3.13;100.00
7888;BME280;3989;48.810;9.208;2023-03-04T14:43:26;99257.47;;;2.82;100.00
7888;BME280;3989;48.810;9.208;2023-03-04T14:45:56;99315.75;;;3.12;100.00
7888;BME280;3989;48.810;9.208;2023-03-04T14:48:26;99301.25;;;3.06;100.00
7888;BME280;3989;48.810;9.208;2023-03-04T14:50:54;99321.84;;;3.24;100.00
7888;BME280;3989;48.810;9.208;2023-03-04T14:53:24;99317.44;;;3.13;100.00
7888;BME280;3989;48.810;9.208;2023-03-04T14:55:56;99315.50;;;3.15;100.00
7888;BME280;3989;48.810;9.208;2023-03-04T14:58:24;99261.56;;;2.86;100.00
7888;BME280;3989;48.810;9.208;2023-03-04T15:01:04;99282.06;;;3.04;100.00
7888;BME280;3989;48.810;9.208;2023-03-04T15:03:31;99305.31;;;3.22;100.00
7888;BME280;3989;48.810;9.208;2023-03-04T15:06:06;99297.91;;;3.15;100.00
7888;BME280;3989;48.810;9.208;2023-03-04T15:08:36;99285.06;;;3.00;100.00
7888;BME280;3989;48.810;9.208;2023-03-04T15:11:06;99316.22;;;3.17;100.00
7888;BME280;3989;48.810;9.208;2023-03-04T15:13:37;99267.16;;;2.81;100.00
7888;BME280;3989;48.810;9.208;2023-03-04T15:16:05;99228.34;;;2.61;100.00
7888;BME280;3989;48.810;9.208;2023-03-04T15:18:32;99259.50;;;2.67;100.00
7888;BME280;3989;48.810;9.208;2023-03-04T15:21:00;99281.56;;;2.88;100.00
7888;BME280;3989;48.810;9.208;2023-03-04T15:23:28;99242.72;;;2.57;100.00
7888;BME280;3989;48.810;9.208;2023-03-04T15:25:58;99229.03;;;2.41;100.00
7888;BME280;3989;48.810;9.208;2023-03-04T15:28:33;99270.53;;;2.72;100.00
7888;BME280;3989;48.810;9.208;2023-03-04T15:31:00;99280.34;;;2.81;100.00
7888;BME280;3989;48.810;9.208;2023-03-04T15:33:27;99277.13;;;2.78;100.00
7888;BME280;3989;48.810;9.208;2023-03-04T15:35:57;99263.94;;;2.67;100.00
7888;BME280;3989;48.810;9.208;2023-03-04T15:38:25;99126.34;;;1.95;100.00
7888;BME280;3989;48.810;9.208;2023-03-04T15:40:53;99216.84;;;2.51;100.00
7888;BME280;3989;48.810;9.208;2023-03-04T15:43:22;99184.22;;;2.30;100.00
7888;BME280;3989;48.810;9.208;2023-03-04T15:45:50;99289.84;;;2.95;100.00
7888;BME280;3989;48.810;9.208;2023-03-04T15:48:17;99306.16;;;3.00;100.00
7888;BME280;3989;48.810;9.208;2023-03-04T15:50:47;99303.88;;;2.95;100.00
7888;BME280;3989;48.810;9.208;2023-03-04T15:53:20;99150.19;;;1.93;100.00
7888;BME280;3989;48.810;9.208;2023-03-04T15:55:48;99197.88;;;2.24;100.00
7888;BME280;3989;48.810;9.208;2023-03-04T15:58:14;99212.97;;;2.33;100.00
7888;BME280;3989;48.810;9.208;2023-03-04T16:00:43;99146.81;;;1.91;100.00
7888;BME280;3989;48.810;9.208;2023-03-04T16:03:13;99297.50;;;2.87;100.00
7888;BME280;3989;48.810;9.208;2023-03-04T16:05:42;99252.69;;;2.64;100.00
7888;BME280;3989;48.810;9.208;2023-03-04T16:08:12;99232.50;;;2.52;100.00
7888;BME280;3989;48.810;9.208;2023-03-04T16:10:39;99296.19;;;2.92;100.00
7888;BME280;3989;48.810;9.208;2023-03-04T16:13:12;99299.69;;;2.93;100.00
7888;BME280;3989;48.810;9.208;2023-03-04T16:15:39;99266.94;;;2.73;100.00
7888;BME280;3989;48.810;9.208;2023-03-04T16:18:09;99311.78;;;2.95;100.00
7888;BME280;3989;48.810;9.208;2023-03-04T16:20:37;99310.09;;;2.94;100.00
7888;BME280;3989;48.810;9.208;2023-03-04T16:23:05;99266.94;;;2.73;100.00
7888;BME280;3989;48.810;9.208;2023-03-04T16:25:35;99310.22;;;2.93;100.00
7888;BME280;3989;48.810;9.208;2023-03-04T16:28:02;99295.22;;;2.82;100.00
7888;BME280;3989;48.810;9.208;2023-03-04T16:30:29;99277.81;;;2.69;100.00
7888;BME280;3989;48.810;9.208;2023-03-04T16:32:57;99204.47;;;2.29;100.00
7888;BME280;3989;48.810;9.208;2023-03-04T16:35:25;99301.09;;;2.86;100.00
7888;BME280;3989;48.810;9.208;2023-03-04T16:37:53;99306.00;;;2.79;100.00
7888;BME280;3989;48.810;9.208;2023-03-04T16:40:24;99298.69;;;2.83;100.00
7888;BME280;3989;48.810;9.208;2023-03-04T16:42:51;99236.31;;;2.37;100.00
7888;BME280;3989;48.810;9.208;2023-03-04T16:45:20;99302.28;;;2.82;100.00
7888;BME280;3989;48.810;9.208;2023-03-04T16:47:48;99280.81;;;2.64;100.00
7888;BME280;3989;48.810;9.208;2023-03-04T16:50:17;99306.59;;;2.83;100.00
7888;BME280;3989;48.810;9.208;2023-03-04T16:52:47;99303.84;;;2.73;100.00
7888;BME280;3989;48.810;9.208;2023-03-04T16:55:17;99195.22;;;2.13;100.00
7888;BME280;3989;48.810;9.208;2023-03-04T16:57:45;99297.00;;;2.71;100.00
7888;BME280;3989;48.810;9.208;2023-03-04T17:00:13;99221.56;;;2.24;100.00
7888;BME280;3989;48.810;9.208;2023-03-04T17:02:41;99183.09;;;1.99;100.00
7888;BME280;3989;48.810;9.208;2023-03-04T17:05:12;99219.41;;;2.18;100.00
7888;BME280;3989;48.810;9.208;2023-03-04T17:07:42;99154.31;;;1.85;100.00
7888;BME280;3989;48.810;9.208;2023-03-04T17:10:12;99233.16;;;2.21;100.00
7888;BME280;3989;48.810;9.208;2023-03-04T17:12:40;99249.72;;;2.34;100.00
7888;BME280;3989;48.810;9.208;2023-03-04T17:15:09;99268.34;;;2.55;100.00
7888;BME280;3989;48.810;9.208;2023-03-04T17:17:37;99312.13;;;2.80;100.00
7888;BME280;3989;48.810;9.208;2023-03-04T17:20:05;99300.97;;;2.76;100.00
7888;BME280;3989;48.810;9.208;2023-03-04T17:22:33;99213.91;;;2.21;100.00
7888;BME280;3989;48.810;9.208;2023-03-04T17:24:59;99307.19;;;2.75;100.00
7888;BME280;3989;48.810;9.208;2023-03-04T17:27:28;99318.22;;;2.80;100.00
7888;BME280;3989;48.810;9.208;2023-03-04T17:29:56;99166.63;;;1.84;100.00
7888;BME280;3989;48.810;9.208;2023-03-04T17:32:22;99283.78;;;2.59;100.00
7888;BME280;3989;48.810;9.208;2023-03-04T17:34:52;99314.28;;;2.75;100.00
7888;BME280;3989;48.810;9.208;2023-03-04T17:37:20;99279.59;;;2.57;100.00
7888;BME280;3989;48.810;9.208;2023-03-04T17:39:47;99200.09;;;2.06;100.00
7888;BME280;3989;48.810;9.208;2023-03-04T17:42:13;99216.38;;;2.11;100.00
7888;BME280;3989;48.810;9.208;2023-03-04T17:44:42;99321.81;;;2.79;100.00
7888;BME280;3989;48.810;9.208;2023-03-04T17:47:09;99315.00;;;2.77;100.00
7888;BME280;3989;48.810;9.208;2023-03-04T17:49:36;99288.13;;;2.60;100.00
7888;BME280;3989;48.810;9.208;2023-03-04T17:52:03;99257.16;;;2.40;100.00
7888;BME280;3989;48.810;9.208;2023-03-04T17:54:32;99255.16;;;2.44;100.00
7888;BME280;3989;48.810;9.208;2023-03-04T17:57:00;99204.28;;;2.08;100.00
7888;BME280;3989;48.810;9.208;2023-03-04T17:59:27;99308.41;;;2.82;100.00
7888;BME280;3989;48.810;9.208;2023-03-04T18:01:55;99261.25;;;2.55;100.00
7888;BME280;3989;48.810;9.208;2023-03-04T18:04:22;99244.50;;;2.45;100.00
7888;BME280;3989;48.810;9.208;2023-03-04T18:06:48;99237.88;;;2.40;100.00
7888;BME280;3989;48.810;9.208;2023-03-04T18:09:15;99123.41;;;1.65;100.00
7888;BME280;3989;48.810;9.208;2023-03-04T18:11:42;99279.97;;;2.63;100.00
7888;BME280;3989;48.810;9.208;2023-03-04T18:14:09;99319.44;;;2.87;100.00
7888;BME280;3989;48.810;9.208;2023-03-04T18:16:37;99184.47;;;2.16;100.00
7888;BME280;3989;48.810;9.208;2023-03-04T18:19:05;99264.88;;;2.54;100.00
7888;BME280;3989;48.810;9.208;2023-03-04T18:21:34;99221.03;;;2.42;100.00
7888;BME280;3989;48.810;9.208;2023-03-04T18:24:01;99276.41;;;2.76;100.00
7888;BME280;3989;48.810;9.208;2023-03-04T18:26:27;99317.75;;;2.97;100.00
7888;BME280;3989;48.810;9.208;2023-03-04T18:28:54;99308.06;;;2.98;100.00
7888;BME280;3989;48.810;9.208;2023-03-04T18:31:23;99301.94;;;2.97;100.00
7888;BME280;3989;48.810;9.208;2023-03-04T18:33:50;99301.13;;;2.97;100.00
7888;BME280;3989;48.810;9.208;2023-03-04T18:36:19;99261.56;;;2.75;100.00
7888;BME280;3989;48.810;9.208;2023-03-04T18:38:46;99266.69;;;2.76;100.00
7888;BME280;3989;48.810;9.208;2023-03-04T18:41:13;99249.34;;;2.74;100.00
7888;BME280;3989;48.810;9.208;2023-03-04T18:43:41;99264.31;;;2.73;100.00
7888;BME280;3989;48.810;9.208;2023-03-04T18:46:10;99291.38;;;2.97;100.00
7888;BME280;3989;48.810;9.208;2023-03-04T18:48:45;99293.22;;;2.97;100.00
7888;BME280;3989;48.810;9.208;2023-03-04T18:51:12;99263.72;;;2.81;100.00
7888;BME280;3989;48.810;9.208;2023-03-04T18:53:40;99206.50;;;2.37;100.00
7888;BME280;3989;48.810;9.208;2023-03-04T18:56:10;99256.28;;;2.75;100.00
7888;BME280;3989;48.810;9.208;2023-03-04T18:58:39;99265.63;;;2.79;100.00
7888;BME280;3989;48.810;9.208;2023-03-04T19:01:09;99224.16;;;2.58;100.00
7888;BME280;3989;48.810;9.208;2023-03-04T19:03:37;99235.19;;;2.63;100.00
7888;BME280;3989;48.810;9.208;2023-03-04T19:06:05;99290.69;;;2.95;100.00
7888;BME280;3989;48.810;9.208;2023-03-04T19:08:33;99292.22;;;2.98;100.00
7888;BME280;3989;48.810;9.208;2023-03-04T19:11:01;99228.97;;;2.64;100.00
7888;BME280;3989;48.810;9.208;2023-03-04T19:13:30;99250.53;;;2.81;100.00
7888;BME280;3989;48.810;9.208;2023-03-04T19:15:57;99278.00;;;3.00;100.00
7888;BME280;3989;48.810;9.208;2023-03-04T19:18:24;99282.28;;;3.01;100.00
7888;BME280;3989;48.810;9.208;2023-03-04T19:20:51;99275.94;;;2.93;100.00
7888;BME280;3989;48.810;9.208;2023-03-04T19:23:17;99266.81;;;2.86;100.00
7888;BME280;3989;48.810;9.208;2023-03-04T19:25:44;99239.41;;;2.77;100.00
7888;BME280;3989;48.810;9.208;2023-03-04T19:28:12;99281.81;;;2.96;100.00
7888;BME280;3989;48.810;9.208;2023-03-04T19:30:40;99224.50;;;2.65;100.00
7888;BME280;3989;48.810;9.208;2023-03-04T19:33:07;99273.06;;;2.96;100.00
7888;BME280;3989;48.810;9.208;2023-03-04T19:35:39;99239.50;;;2.76;100.00
7888;BME280;3989;48.810;9.208;2023-03-04T19:38:05;99240.25;;;2.78;100.00
7888;BME280;3989;48.810;9.208;2023-03-04T19:40:32;99200.91;;;2.52;100.00
7888;BME280;3989;48.810;9.208;2023-03-04T19:42:59;99272.72;;;3.00;100.00
7888;BME280;3989;48.810;9.208;2023-03-04T19:45:27;99248.63;;;2.83;100.00
7888;BME280;3989;48.810;9.208;2023-03-04T19:47:53;99198.63;;;2.48;100.00
7888;BME280;3989;48.810;9.208;2023-03-04T19:50:21;99267.78;;;2.96;100.00
7888;BME280;3989;48.810;9.208;2023-03-04T19:52:48;99252.47;;;2.90;100.00
7888;BME280;3989;48.810;9.208;2023-03-04T19:55:14;99264.91;;;2.99;100.00
7888;BME280;3989;48.810;9.208;2023-03-04T19:57:41;99226.22;;;2.77;100.00
7888;BME280;3989;48.810;9.208;2023-03-04T20:00:09;99254.63;;;2.96;100.00
7888;BME280;3989;48.810;9.208;2023-03-04T20:02:38;99271.41;;;3.06;100.00
7888;BME280;3989;48.810;9.208;2023-03-04T20:05:06;99275.81;;;3.05;100.00
7888;BME280;3989;48.810;9.208;2023-03-04T20:07:32;99268.75;;;3.06;100.00